Time;durP1;ratioP1;P1;durP2;ratioP2;P2;SDS_P1;SDS_P2;PMS_P1;PMS_P2;Temp;Humidity;BMP_temperature;BMP_pressure;BME280_temperature;BME280_humidity;BME280_pressure;Samples;Min_cycle;Max_cycle;Signal;HPM_P1;HPM_P2
2022/05/12 00:02:07;;;;;;;18.67;3.28;;;;;;;;;;5033104;28;20732;-85
2022/05/12 00:04:35;;;;;;;9.50;4.10;;;;;;;;;;5030163;28;20132;-84
2022/05/12 00:07:03;;;;;;;10.35;3.10;;;;;;;;;;5026443;28;20467;-84
2022/05/12 00:09:30;;;;;;;15.48;4.50;;;;;;;;;;5014560;28;20731;-84
2022/05/12 00:11:58;;;;;;;12.38;3.42;;;;;;;;;;5014457;28;20046;-84
2022/05/12 00:14:26;;;;;;;18.10;3.95;;;;;;;;;;5011618;28;20116;-84
2022/05/12 00:16:56;;;;;;;11.80;3.85;;;;;;;;;;5028782;28;20465;-87
2022/05/12 00:19:26;;;;;;;16.20;4.80;;;;;;;;;;5004833;28;20042;-88
2022/05/12 00:21:54;;;;;;;24.48;4.95;;;;;;;;;;5014244;28;20088;-88
2022/05/12 00:24:21;;;;;;;18.70;5.85;;;;;;;;;;5028127;28;20049;-89
2022/05/12 00:26:48;;;;;;;16.05;5.22;;;;;;;;;;5016418;28;20076;-87
2022/05/12 00:29:16;;;;;;;17.02;4.78;;;;;;;;;;5016966;28;20046;-86
2022/05/12 00:31:44;;;;;;;24.02;5.43;;;;;;;;;;5036068;28;20045;-86
2022/05/12 00:34:12;;;;;;;19.40;5.32;;;;;;;;;;5017024;28;20496;-87
2022/05/12 00:36:39;;;;;;;23.48;6.53;;;;;;;;;;5037675;28;20537;-87
2022/05/12 00:39:07;;;;;;;18.77;5.63;;;;;;;;;;5027659;28;20041;-90
2022/05/12 00:41:34;;;;;;;19.30;5.63;;;;;;;;;;5036161;28;20486;-90
2022/05/12 00:44:05;;;;;;;19.40;5.38;;;;;;;;;;5036846;28;20110;-91
2022/05/12 00:46:35;;;;;;;22.95;6.28;;;;;;;;;;5019882;28;20053;-91
2022/05/12 00:49:14;;;;;;;19.90;5.55;;;;;;;;;;5022182;28;20057;-90
2022/05/12 00:51:44;;;;;;;33.25;9.00;;;;;;;;;;5035265;28;20057;-89
2022/05/12 00:54:18;;;;;;;18.63;6.53;;;;;;;;;;5015516;28;20093;-91
2022/05/12 00:56:45;;;;;;;14.40;6.07;;;;;;;;;;5015819;28;20099;-90
2022/05/12 00:59:14;;;;;;;22.60;6.30;;;;;;;;;;5014889;28;20115;-90
2022/05/12 01:01:41;;;;;;;21.83;6.82;;;;;;;;;;5016874;28;20176;-91
2022/05/12 01:04:08;;;;;;;17.40;6.55;;;;;;;;;;5015703;28;20053;-91
2022/05/12 01:06:36;;;;;;;26.30;6.15;;;;;;;;;;4995665;28;20085;-90
2022/05/12 01:09:03;;;;;;;20.33;6.15;;;;;;;;;;5011132;28;20125;-88
2022/05/12 01:11:30;;;;;;;19.63;6.28;;;;;;;;;;5013511;28;20041;-91
2022/05/12 01:14:02;;;;;;;28.10;7.43;;;;;;;;;;5018279;28;20076;-89
2022/05/12 01:16:36;;;;;;;29.80;7.13;;;;;;;;;;5012513;28;20138;-88
2022/05/12 01:19:05;;;;;;;15.80;6.95;;;;;;;;;;5013583;28;20052;-90
2022/05/12 01:21:32;;;;;;;19.25;7.60;;;;;;;;;;5033740;28;20476;-89
2022/05/12 01:24:00;;;;;;;17.55;6.20;;;;;;;;;;5011892;28;20138;-88
2022/05/12 01:26:28;;;;;;;24.73;7.50;;;;;;;;;;5013615;28;20123;-88
2022/05/12 01:28:55;;;;;;;20.85;5.30;;;;;;;;;;5013817;28;20053;-90
2022/05/12 01:31:23;;;;;;;21.42;6.30;;;;;;;;;;5014648;28;20127;-90
2022/05/12 01:33:51;;;;;;;19.55;5.80;;;;;;;;;;5013636;28;20063;-90
2022/05/12 01:36:22;;;;;;;25.52;6.55;;;;;;;;;;5013638;28;20096;-90
2022/05/12 01:38:49;;;;;;;19.55;6.72;;;;;;;;;;5014693;28;20115;-90
2022/05/12 01:41:17;;;;;;;23.60;6.72;;;;;;;;;;5031317;28;20441;-88
2022/05/12 01:43:44;;;;;;;22.90;6.47;;;;;;;;;;5030410;28;20854;-88
2022/05/12 01:46:12;;;;;;;24.05;5.95;;;;;;;;;;5033596;28;20084;-87
2022/05/12 01:48:39;;;;;;;17.40;6.88;;;;;;;;;;5013070;28;20053;-88
2022/05/12 01:51:07;;;;;;;14.95;6.47;;;;;;;;;;5015615;28;20073;-88
2022/05/12 01:53:34;;;;;;;24.92;6.40;;;;;;;;;;5013479;28;20672;-89
2022/05/12 01:56:02;;;;;;;16.92;5.80;;;;;;;;;;5031356;28;20111;-89
2022/05/12 01:58:29;;;;;;;12.98;5.80;;;;;;;;;;5030759;28;20057;-89
2022/05/12 02:00:56;;;;;;;27.58;6.82;;;;;;;;;;5028463;28;20076;-89
2022/05/12 02:03:24;;;;;;;20.48;6.72;;;;;;;;;;5015716;28;20479;-89
2022/05/12 02:05:51;;;;;;;25.60;7.20;;;;;;;;;;5032443;28;20053;-90
2022/05/12 02:08:19;;;;;;;26.42;6.50;;;;;;;;;;5013843;28;20482;-89
2022/05/12 02:10:49;;;;;;;25.92;6.55;;;;;;;;;;5009538;28;20050;-90
2022/05/12 02:13:18;;;;;;;24.17;7.32;;;;;;;;;;5009374;28;20117;-90
2022/05/12 02:15:46;;;;;;;26.42;6.80;;;;;;;;;;5009835;28;20052;-89
2022/05/12 02:18:18;;;;;;;19.38;7.32;;;;;;;;;;5013666;28;20782;-87
2022/05/12 02:20:45;;;;;;;28.45;6.95;;;;;;;;;;5016300;28;20101;-88
2022/05/12 02:23:12;;;;;;;16.55;6.75;;;;;;;;;;5012749;28;20135;-88
2022/05/12 02:25:40;;;;;;;26.35;5.95;;;;;;;;;;5012535;28;20452;-90
2022/05/12 02:28:07;;;;;;;20.55;6.40;;;;;;;;;;4995970;28;20049;-89
2022/05/12 02:30:35;;;;;;;23.02;7.30;;;;;;;;;;5011848;28;20054;-89
2022/05/12 02:33:02;;;;;;;26.50;8.80;;;;;;;;;;5030236;28;20057;-88
2022/05/12 02:35:30;;;;;;;21.23;6.70;;;;;;;;;;5011479;28;20076;-89
2022/05/12 02:37:58;;;;;;;21.77;6.68;;;;;;;;;;5010787;28;20553;-88
2022/05/12 02:40:28;;;;;;;19.85;6.63;;;;;;;;;;5019552;28;20053;-87
2022/05/12 02:42:57;;;;;;;12.65;6.55;;;;;;;;;;5019406;28;20056;-87
2022/05/12 02:45:24;;;;;;;17.30;6.25;;;;;;;;;;5025983;28;20064;-90
2022/05/12 02:47:52;;;;;;;18.17;5.85;;;;;;;;;;5052418;28;20678;-89
2022/05/12 02:50:20;;;;;;;22.80;5.60;;;;;;;;;;5018957;28;20167;-91
2022/05/12 02:52:47;;;;;;;16.88;6.00;;;;;;;;;;5032974;28;20111;-90
2022/05/12 02:55:14;;;;;;;21.85;6.00;;;;;;;;;;5015349;28;20087;-90
2022/05/12 02:57:42;;;;;;;15.93;5.25;;;;;;;;;;5014577;28;20049;-90
2022/05/12 03:00:12;;;;;;;17.33;5.82;;;;;;;;;;5014375;28;20045;-91
2022/05/12 03:02:40;;;;;;;23.23;6.93;;;;;;;;;;5013881;28;20061;-88
2022/05/12 03:05:07;;;;;;;18.80;5.95;;;;;;;;;;5031787;28;20096;-88
2022/05/12 03:07:35;;;;;;;24.42;6.35;;;;;;;;;;5030310;28;20049;-88
2022/05/12 03:10:03;;;;;;;18.17;6.47;;;;;;;;;;5013954;28;20057;-90
2022/05/12 03:12:32;;;;;;;17.25;5.93;;;;;;;;;;5031139;28;20363;-89
2022/05/12 03:15:00;;;;;;;23.08;5.85;;;;;;;;;;5029316;28;20045;-89
2022/05/12 03:17:28;;;;;;;21.27;5.93;;;;;;;;;;5015013;28;20050;-90
2022/05/12 03:19:55;;;;;;;20.58;5.78;;;;;;;;;;5013807;28;20046;-89
2022/05/12 03:22:22;;;;;;;35.83;6.45;;;;;;;;;;5030907;28;20761;-88
2022/05/12 03:24:50;;;;;;;20.48;6.22;;;;;;;;;;5014621;28;20140;-88
2022/05/12 03:27:17;;;;;;;19.25;5.85;;;;;;;;;;5029460;28;20077;-89
2022/05/12 03:29:44;;;;;;;17.73;6.35;;;;;;;;;;5013105;28;20192;-90
2022/05/12 03:32:12;;;;;;;18.73;6.05;;;;;;;;;;5030947;28;20479;-90
2022/05/12 03:34:40;;;;;;;15.40;5.57;;;;;;;;;;5028198;28;20131;-89
2022/05/12 03:37:08;;;;;;;12.88;5.03;;;;;;;;;;5032074;28;20061;-89
2022/05/12 03:39:43;;;;;;;17.13;5.40;;;;;;;;;;5017568;28;20083;-90
2022/05/12 03:42:15;;;;;;;15.35;5.68;;;;;;;;;;5015884;28;20049;-88
2022/05/12 03:44:46;;;;;;;16.40;5.63;;;;;;;;;;5016665;28;20352;-89
2022/05/12 03:47:19;;;;;;;22.08;5.82;;;;;;;;;;5015162;28;20136;-89
2022/05/12 03:49:48;;;;;;;20.60;7.00;;;;;;;;;;5034007;28;20099;-89
2022/05/12 03:52:16;;;;;;;15.88;6.30;;;;;;;;;;5018817;28;20049;-89
2022/05/12 03:54:43;;;;;;;19.55;6.22;;;;;;;;;;5016075;28;20103;-89
2022/05/12 03:57:12;;;;;;;20.27;6.38;;;;;;;;;;5032741;28;20049;-89
2022/05/12 03:59:39;;;;;;;16.98;5.57;;;;;;;;;;5033267;28;20140;-90
2022/05/12 04:02:08;;;;;;;19.23;6.38;;;;;;;;;;5033451;28;20049;-92
2022/05/12 04:04:35;;;;;;;19.20;7.05;;;;;;;;;;5023588;28;20057;-92
2022/05/12 04:07:03;;;;;;;20.58;6.68;;;;;;;;;;5025050;28;20068;-90
2022/05/12 04:09:30;;;;;;;19.33;6.40;;;;;;;;;;5033948;28;20049;-91
2022/05/12 04:11:57;;;;;;;25.92;8.02;;;;;;;;;;5017430;28;20135;-91
2022/05/12 04:14:24;;;;;;;30.83;6.85;;;;;;;;;;5017167;28;20131;-88
2022/05/12 04:16:52;;;;;;;18.08;7.00;;;;;;;;;;5032617;28;20049;-87
2022/05/12 04:19:19;;;;;;;15.48;5.95;;;;;;;;;;5012734;28;20717;-86
2022/05/12 04:21:46;;;;;;;13.43;5.35;;;;;;;;;;5035271;28;20753;-86
2022/05/12 04:24:13;;;;;;;19.02;7.28;;;;;;;;;;5032847;28;20482;-84
2022/05/12 04:26:41;;;;;;;20.95;7.40;;;;;;;;;;5014480;28;20128;-86
2022/05/12 04:29:08;;;;;;;17.17;6.45;;;;;;;;;;5032602;28;20103;-86
2022/05/12 04:31:35;;;;;;;16.27;5.65;;;;;;;;;;4997759;28;20056;-85
2022/05/12 04:36:48;;;;;;;;;;;;;;;;;;5034674;28;20048;-91
2022/05/12 04:39:15;;;;;;;9.02;3.53;;;;;;;;;;5015624;28;20350;-86
2022/05/12 04:41:43;;;;;;;10.43;2.47;;;;;;;;;;5014254;28;20093;-86
2022/05/12 04:44:11;;;;;;;8.18;1.90;;;;;;;;;;5031392;28;20088;-85
2022/05/12 04:46:39;;;;;;;5.82;1.33;;;;;;;;;;5030037;28;20607;-85
2022/05/12 04:49:07;;;;;;;5.90;1.38;;;;;;;;;;5018607;28;20055;-87
2022/05/12 04:51:34;;;;;;;4.22;1.48;;;;;;;;;;5029343;28;20579;-81
2022/05/12 04:54:02;;;;;;;3.67;1.73;;;;;;;;;;5030753;28;20534;-83
2022/05/12 04:56:29;;;;;;;4.40;1.52;;;;;;;;;;5019066;28;20123;-82
2022/05/12 04:58:56;;;;;;;2.40;1.10;;;;;;;;;;5013935;28;20045;-82
2022/05/12 05:01:23;;;;;;;3.45;1.45;;;;;;;;;;5030619;28;20451;-77
2022/05/12 05:03:51;;;;;;;4.53;1.00;;;;;;;;;;5029364;28;20057;-82
2022/05/12 05:06:18;;;;;;;1.33;0.80;;;;;;;;;;5031051;28;20144;-80
2022/05/12 05:08:45;;;;;;;2.95;1.00;;;;;;;;;;5030420;28;20127;-83
2022/05/12 05:11:13;;;;;;;3.25;0.80;;;;;;;;;;5014124;28;20139;-83
2022/05/12 05:13:41;;;;;;;3.15;1.17;;;;;;;;;;5021102;28;20132;-87
2022/05/12 05:16:08;;;;;;;11.43;3.58;;;;;;;;;;5016239;28;20083;-83
2022/05/12 05:18:37;;;;;;;5.68;3.90;;;;;;;;;;5032404;28;20157;-77
2022/05/12 05:21:05;;;;;;;4.47;1.40;;;;;;;;;;5012394;28;20053;-76
2022/05/12 05:23:32;;;;;;;6.93;1.75;;;;;;;;;;5010664;28;20767;-77
2022/05/12 05:25:59;;;;;;;5.63;1.90;;;;;;;;;;5029290;28;20156;-76
2022/05/12 05:28:29;;;;;;;8.15;1.63;;;;;;;;;;5013742;28;20079;-81
2022/05/12 05:30:59;;;;;;;2.85;1.52;;;;;;;;;;5030787;28;20045;-84
2022/05/12 05:33:27;;;;;;;3.88;1.38;;;;;;;;;;5016293;28;20041;-84
2022/05/12 05:35:54;;;;;;;2.13;1.40;;;;;;;;;;5032365;28;20077;-86
2022/05/12 05:38:21;;;;;;;4.00;1.65;;;;;;;;;;5016713;28;20046;-86
2022/05/12 05:40:49;;;;;;;7.05;1.60;;;;;;;;;;5033043;28;20045;-86
2022/05/12 05:43:16;;;;;;;6.13;1.63;;;;;;;;;;5014946;28;20088;-82
2022/05/12 05:45:43;;;;;;;4.70;2.30;;;;;;;;;;5018385;28;20568;-85
2022/05/12 05:48:10;;;;;;;5.35;2.10;;;;;;;;;;5032218;28;20057;-84
2022/05/12 05:53:26;;;;;;;6.40;2.97;;;;;;;;;;5032698;28;20448;-85
2022/05/12 05:55:54;;;;;;;8.85;2.63;;;;;;;;;;5032321;28;20532;-86
2022/05/12 05:58:22;;;;;;;10.50;3.78;;;;;;;;;;5016028;28;20445;-86
2022/05/12 06:00:50;;;;;;;7.13;3.13;;;;;;;;;;5032330;28;20556;-86
2022/05/12 06:03:18;;;;;;;13.13;2.63;;;;;;;;;;5014718;28;20103;-87
2022/05/12 06:05:46;;;;;;;10.45;3.63;;;;;;;;;;5032203;28;20096;-87
2022/05/12 06:08:15;;;;;;;9.75;2.92;;;;;;;;;;5031719;28;20049;-86
2022/05/12 06:10:43;;;;;;;12.50;3.20;;;;;;;;;;5013467;28;20045;-86
2022/05/12 06:13:14;;;;;;;7.53;2.70;;;;;;;;;;5012820;28;20077;-87
2022/05/12 06:15:43;;;;;;;10.15;3.10;;;;;;;;;;4999910;28;20137;-87
2022/05/12 06:18:13;;;;;;;10.40;3.53;;;;;;;;;;5011428;28;20079;-86
2022/05/12 06:20:41;;;;;;;7.10;2.22;;;;;;;;;;5013156;28;20478;-86
2022/05/12 06:23:09;;;;;;;7.22;2.90;;;;;;;;;;5031150;28;20077;-86
2022/05/12 06:25:37;;;;;;;6.28;2.28;;;;;;;;;;5030569;28;20107;-87
2022/05/12 06:28:04;;;;;;;8.65;3.33;;;;;;;;;;5012376;28;20053;-86
2022/05/12 06:30:31;;;;;;;7.75;2.40;;;;;;;;;;5012865;28;20056;-86
2022/05/12 06:33:00;;;;;;;6.60;1.98;;;;;;;;;;5013408;28;20095;-87
2022/05/12 06:35:28;;;;;;;15.30;2.90;;;;;;;;;;5013212;28;20080;-87
2022/05/12 06:37:55;;;;;;;7.28;2.45;;;;;;;;;;5014465;28;20081;-86
2022/05/12 06:40:25;;;;;;;4.65;1.85;;;;;;;;;;5013777;28;20674;-87
2022/05/12 06:42:54;;;;;;;7.13;2.22;;;;;;;;;;5010534;28;20050;-87
2022/05/12 06:45:22;;;;;;;9.63;2.33;;;;;;;;;;5011547;28;20077;-87
2022/05/12 06:47:53;;;;;;;6.50;2.53;;;;;;;;;;5011165;28;20088;-86
2022/05/12 06:50:25;;;;;;;6.85;2.00;;;;;;;;;;5009880;28;20053;-86
2022/05/12 06:52:53;;;;;;;3.60;2.10;;;;;;;;;;5009643;28;20403;-85
2022/05/12 06:55:22;;;;;;;7.25;2.50;;;;;;;;;;5013087;28;20077;-87
2022/05/12 06:57:49;;;;;;;6.63;1.90;;;;;;;;;;5030149;28;20090;-87
2022/05/12 07:00:17;;;;;;;7.25;2.65;;;;;;;;;;5013229;28;20046;-87
2022/05/12 07:02:45;;;;;;;7.68;2.13;;;;;;;;;;5013137;28;20053;-87
2022/05/12 07:05:14;;;;;;;8.75;1.98;;;;;;;;;;5012826;28;20060;-87
2022/05/12 07:07:42;;;;;;;5.35;1.80;;;;;;;;;;5012888;28;20053;-88
2022/05/12 07:10:09;;;;;;;6.30;1.95;;;;;;;;;;5017104;28;20053;-87
2022/05/12 07:12:38;;;;;;;6.05;1.42;;;;;;;;;;5034113;28;20890;-87
2022/05/12 07:15:05;;;;;;;3.92;1.45;;;;;;;;;;5016966;28;20045;-87
2022/05/12 07:17:33;;;;;;;8.15;1.50;;;;;;;;;;5034367;28;20080;-87
2022/05/12 07:28:19;;;;;;;4.40;1.50;;;;;;;;;;5034959;28;20077;-87
2022/05/12 07:31:01;;;;;;;4.00;1.42;;;;;;;;;;5037964;28;20371;-89
2022/05/12 07:33:45;;;;;;;11.77;1.80;;;;;;;;;;5021661;28;20048;-86
2022/05/12 07:36:17;;;;;;;6.57;2.33;;;;;;;;;;5009125;28;20490;-88
2022/05/12 07:38:45;;;;;;;4.60;1.27;;;;;;;;;;5035939;28;20087;-90
2022/05/12 07:41:12;;;;;;;5.75;1.48;;;;;;;;;;5017587;28;20863;-87
2022/05/12 07:43:40;;;;;;;6.50;1.45;;;;;;;;;;5016581;28;20053;-89
2022/05/12 07:46:08;;;;;;;4.63;1.80;;;;;;;;;;5016970;28;20053;-83
2022/05/12 07:48:36;;;;;;;67.38;8.10;;;;;;;;;;5042059;28;20053;-86
2022/05/12 07:51:03;;;;;;;18.08;3.03;;;;;;;;;;5048877;28;20053;-84
2022/05/12 07:53:31;;;;;;;25.63;2.50;;;;;;;;;;5053394;28;20057;-86
2022/05/12 07:55:58;;;;;;;4.05;1.65;;;;;;;;;;5027931;28;20724;-87
2022/05/12 07:58:27;;;;;;;7.28;1.65;;;;;;;;;;5016056;28;20050;-87
2022/05/12 08:00:54;;;;;;;5.00;1.50;;;;;;;;;;5025389;28;20072;-86
2022/05/12 08:03:22;;;;;;;7.43;1.70;;;;;;;;;;5036386;28;20088;-86
2022/05/12 08:05:50;;;;;;;12.73;1.83;;;;;;;;;;5036566;28;20063;-85
2022/05/12 08:08:18;;;;;;;5.65;1.20;;;;;;;;;;5034925;28;20110;-88
2022/05/12 08:10:45;;;;;;;9.07;1.45;;;;;;;;;;5015826;28;20088;-90
2022/05/12 08:13:16;;;;;;;8.15;1.60;;;;;;;;;;5029600;28;20851;-83
2022/05/12 08:15:44;;;;;;;8.05;1.60;;;;;;;;;;5019111;28;20042;-82
2022/05/12 08:18:11;;;;;;;8.25;2.22;;;;;;;;;;5016038;28;20046;-83
2022/05/12 08:20:38;;;;;;;6.60;1.60;;;;;;;;;;5015180;28;20095;-83
2022/05/12 08:23:06;;;;;;;9.25;2.00;;;;;;;;;;5025992;28;20089;-83
2022/05/12 08:25:33;;;;;;;6.45;1.63;;;;;;;;;;5014778;28;20084;-83
2022/05/12 08:28:01;;;;;;;4.57;1.70;;;;;;;;;;5033191;28;20581;-82
2022/05/12 08:30:30;;;;;;;8.30;1.55;;;;;;;;;;5033385;28;20139;-83
2022/05/12 08:32:57;;;;;;;6.35;2.05;;;;;;;;;;5015296;28;20053;-83
2022/05/12 08:35:25;;;;;;;3.78;1.30;;;;;;;;;;5015411;28;20046;-82
2022/05/12 08:37:52;;;;;;;7.15;1.40;;;;;;;;;;5032954;28;20045;-82
2022/05/12 08:40:39;;;;;;;7.38;1.60;;;;;;;;;;5028944;28;20061;-83
2022/05/12 08:43:12;;;;;;;11.10;1.38;;;;;;;;;;5015974;28;20073;-82
2022/05/12 08:45:39;;;;;;;2.92;1.00;;;;;;;;;;5033396;28;20057;-84
2022/05/12 08:48:07;;;;;;;4.25;1.13;;;;;;;;;;5033829;28;20050;-83
2022/05/12 08:50:34;;;;;;;3.85;1.27;;;;;;;;;;5033572;28;20055;-84
2022/05/12 08:53:03;;;;;;;5.68;1.40;;;;;;;;;;5014062;28;20045;-84
2022/05/12 08:55:32;;;;;;;5.28;1.42;;;;;;;;;;5015526;28;20050;-84
2022/05/12 08:58:04;;;;;;;4.85;1.25;;;;;;;;;;5015713;28;20111;-84
2022/05/12 09:00:52;;;;;;;2.35;1.13;;;;;;;;;;5033189;28;20111;-85
2022/05/12 09:03:35;;;;;;;4.05;1.50;;;;;;;;;;5015250;28;20056;-83
2022/05/12 09:06:05;;;;;;;6.75;1.35;;;;;;;;;;5015179;28;20053;-84
2022/05/12 09:08:34;;;;;;;4.95;1.52;;;;;;;;;;5020408;28;20053;-84
2022/05/12 09:11:04;;;;;;;5.57;1.30;;;;;;;;;;5012249;28;20056;-84
2022/05/12 09:13:34;;;;;;;6.55;1.38;;;;;;;;;;5011426;28;20049;-84
2022/05/12 09:16:11;;;;;;;4.95;1.55;;;;;;;;;;5011801;28;20076;-84
2022/05/12 09:18:39;;;;;;;6.88;1.90;;;;;;;;;;5012271;28;20277;-84
2022/05/12 09:21:09;;;;;;;13.10;1.70;;;;;;;;;;5015806;28;20136;-84
2022/05/12 09:23:37;;;;;;;7.97;1.58;;;;;;;;;;5025723;28;20139;-85
2022/05/12 09:26:24;;;;;;;4.97;1.23;;;;;;;;;;5030639;28;20119;-85
2022/05/12 09:28:52;;;;;;;6.53;1.95;;;;;;;;;;5012659;28;20076;-83
2022/05/12 09:31:20;;;;;;;6.30;1.48;;;;;;;;;;5010389;28;20680;-85
2022/05/12 09:33:50;;;;;;;6.30;1.38;;;;;;;;;;5031086;28;20052;-84
2022/05/12 09:36:23;;;;;;;4.18;1.20;;;;;;;;;;5014098;28;20073;-84
2022/05/12 09:38:54;;;;;;;4.13;1.40;;;;;;;;;;5031644;28;20052;-84
2022/05/12 09:41:23;;;;;;;5.88;1.67;;;;;;;;;;5031621;28;20065;-85
2022/05/12 09:43:52;;;;;;;8.13;1.50;;;;;;;;;;5032990;28;20042;-85
2022/05/12 09:46:20;;;;;;;8.38;1.52;;;;;;;;;;5014779;28;20057;-85
2022/05/12 09:48:49;;;;;;;4.50;1.23;;;;;;;;;;5011348;28;20076;-84
2022/05/12 09:51:23;;;;;;;5.53;1.05;;;;;;;;;;5030034;28;20592;-84
2022/05/12 09:53:55;;;;;;;5.60;1.23;;;;;;;;;;5016288;28;20403;-84
2022/05/12 09:56:33;;;;;;;10.73;1.27;;;;;;;;;;5015481;28;20498;-84
2022/05/12 09:59:17;;;;;;;8.43;1.33;;;;;;;;;;5033052;28;20057;-84
2022/05/12 10:01:55;;;;;;;11.63;1.50;;;;;;;;;;5016397;28;20045;-84
2022/05/12 10:10:16;;;;;;;2.90;1.17;;;;;;;;;;5025150;28;20163;-83
2022/05/12 10:12:50;;;;;;;6.03;1.27;;;;;;;;;;5007866;28;20819;-83
2022/05/12 10:15:32;;;;;;;5.43;1.33;;;;;;;;;;5006959;28;20531;-83
2022/05/12 10:18:02;;;;;;;6.03;1.35;;;;;;;;;;5024495;28;20828;-83
2022/05/12 10:20:30;;;;;;;3.63;1.20;;;;;;;;;;5006416;28;20053;-83
2022/05/12 10:23:04;;;;;;;4.40;1.38;;;;;;;;;;5028801;28;20554;-84
2022/05/12 10:25:57;;;;;;;3.22;1.08;;;;;;;;;;5013304;28;20045;-84
2022/05/12 10:28:31;;;;;;;3.78;1.30;;;;;;;;;;5013908;28;20084;-84
2022/05/12 10:31:22;;;;;;;9.13;1.37;;;;;;;;;;5012686;28;20077;-84
2022/05/12 10:34:16;;;;;;;8.50;2.08;;;;;;;;;;5003417;28;20409;-83
2022/05/12 10:37:04;;;;;;;6.45;1.50;;;;;;;;;;5002659;28;20085;-83
2022/05/12 10:39:34;;;;;;;8.43;1.73;;;;;;;;;;4994077;28;20058;-83
2022/05/12 10:42:11;;;;;;;3.13;0.90;;;;;;;;;;5013497;28;20096;-83
2022/05/12 10:44:57;;;;;;;5.93;1.15;;;;;;;;;;5031762;28;20553;-84
2022/05/12 10:47:43;;;;;;;7.15;1.25;;;;;;;;;;5013938;28;20049;-83
2022/05/12 10:50:29;;;;;;;4.70;0.90;;;;;;;;;;5010017;28;20765;-82
2022/05/12 10:53:02;;;;;;;5.90;1.05;;;;;;;;;;5013386;28;20045;-83
2022/05/12 10:55:30;;;;;;;3.22;1.00;;;;;;;;;;5013251;28;20085;-83
2022/05/12 10:58:02;;;;;;;6.40;1.13;;;;;;;;;;5031178;28;20504;-83
2022/05/12 11:00:36;;;;;;;7.20;1.42;;;;;;;;;;5013154;28;20061;-82
2022/05/12 11:03:22;;;;;;;3.97;1.30;;;;;;;;;;5011840;28;20041;-83
2022/05/12 11:05:56;;;;;;;11.88;1.52;;;;;;;;;;5013663;28;20513;-84
2022/05/12 11:08:32;;;;;;;9.45;1.40;;;;;;;;;;5013204;28;20080;-83
2022/05/12 11:11:01;;;;;;;6.80;1.40;;;;;;;;;;5013358;28;20111;-84
2022/05/12 11:13:38;;;;;;;4.63;1.10;;;;;;;;;;5013480;28;20049;-83
2022/05/12 11:16:10;;;;;;;4.93;1.20;;;;;;;;;;5031338;28;20583;-83
2022/05/12 11:18:44;;;;;;;4.40;1.00;;;;;;;;;;5031065;28;20053;-84
2022/05/12 11:21:17;;;;;;;7.60;1.13;;;;;;;;;;5029817;28;20053;-83
2022/05/12 11:23:54;;;;;;;7.72;1.42;;;;;;;;;;5012928;28;20053;-83
2022/05/12 11:26:33;;;;;;;5.93;1.40;;;;;;;;;;5010278;28;20108;-83
2022/05/12 11:32:12;;;;;;;5.85;1.30;;;;;;;;;;5026168;28;20057;-84
2022/05/12 11:34:41;;;;;;;7.55;1.42;;;;;;;;;;5013624;28;20073;-83
2022/05/12 11:37:29;;;;;;;6.85;1.15;;;;;;;;;;5031415;28;20049;-84
2022/05/12 11:39:59;;;;;;;12.32;1.45;;;;;;;;;;5012859;28;20049;-83
2022/05/12 11:45:36;;;;;;;4.45;1.23;;;;;;;;;;5030186;28;20084;-84
2022/05/12 11:48:06;;;;;;;3.50;1.02;;;;;;;;;;5012890;28;20058;-83
2022/05/12 11:50:49;;;;;;;4.15;1.25;;;;;;;;;;5014597;28;20135;-86
2022/05/12 11:53:27;;;;;;;3.85;1.35;;;;;;;;;;5029854;28;20053;-86
2022/05/12 11:56:05;;;;;;;8.07;1.40;;;;;;;;;;5033720;28;20060;-81
2022/05/12 11:58:37;;;;;;;6.03;1.20;;;;;;;;;;5036079;28;20044;-83
2022/05/12 12:01:05;;;;;;;6.32;1.23;;;;;;;;;;5028443;28;20057;-84
2022/05/12 12:03:33;;;;;;;10.90;1.27;;;;;;;;;;5026220;28;20085;-84
2022/05/12 12:06:03;;;;;;;6.55;1.60;;;;;;;;;;5019863;28;20144;-84
2022/05/12 12:08:40;;;;;;;6.30;1.33;;;;;;;;;;5035071;28;20049;-82
2022/05/12 12:11:20;;;;;;;44.35;4.80;;;;;;;;;;5033492;28;20136;-84
2022/05/12 12:13:51;;;;;;;14.23;2.13;;;;;;;;;;5037608;28;20135;-84
2022/05/12 12:16:19;;;;;;;257.75;37.30;;;;;;;;;;5046388;28;20110;-82
2022/05/12 12:18:49;;;;;;;145.30;23.20;;;;;;;;;;5045095;28;20057;-83
2022/05/12 12:21:36;;;;;;;6.40;1.38;;;;;;;;;;5031562;28;20049;-85
2022/05/12 12:24:14;;;;;;;6.53;1.25;;;;;;;;;;5023426;28;20132;-87
2022/05/12 12:26:44;;;;;;;7.10;1.40;;;;;;;;;;5043975;28;20146;-85
2022/05/12 12:29:17;;;;;;;26.58;4.07;;;;;;;;;;5043984;28;20079;-84
2022/05/12 12:31:48;;;;;;;5.03;1.00;;;;;;;;;;5034183;28;20744;-86
2022/05/12 12:34:34;;;;;;;4.93;1.00;;;;;;;;;;5032553;28;20053;-85
2022/05/12 12:37:05;;;;;;;7.78;1.42;;;;;;;;;;5015496;28;20088;-85
2022/05/12 12:39:40;;;;;;;5.78;1.00;;;;;;;;;;5033330;28;20049;-85
2022/05/12 12:42:07;;;;;;;9.43;1.10;;;;;;;;;;5033820;28;20478;-87
2022/05/12 12:44:41;;;;;;;8.88;1.13;;;;;;;;;;5021704;28;20075;-84
2022/05/12 12:47:26;;;;;;;4.25;1.25;;;;;;;;;;5033199;28;20586;-85
2022/05/12 12:49:54;;;;;;;6.82;1.38;;;;;;;;;;5015833;28;20073;-85
2022/05/12 12:52:21;;;;;;;7.75;1.20;;;;;;;;;;5033752;28;20091;-84
2022/05/12 12:57:51;;;;;;;3.05;0.85;;;;;;;;;;5013840;28;20060;-84
2022/05/12 13:00:33;;;;;;;2.45;1.08;;;;;;;;;;5024892;28;20100;-84
2022/05/12 13:03:02;;;;;;;10.20;1.20;;;;;;;;;;5011249;28;20116;-83
2022/05/12 13:05:31;;;;;;;7.13;1.30;;;;;;;;;;5013740;28;20407;-84
2022/05/12 13:07:58;;;;;;;39.70;2.58;;;;;;;;;;5014915;28;20054;-84
2022/05/12 13:10:26;;;;;;;7.30;1.13;;;;;;;;;;5033154;28;20045;-84
2022/05/12 13:13:00;;;;;;;8.80;1.20;;;;;;;;;;5032829;28;20077;-83
2022/05/12 13:15:27;;;;;;;7.05;1.20;;;;;;;;;;5028311;28;20072;-85
2022/05/12 13:17:58;;;;;;;2.63;1.10;;;;;;;;;;5032098;28;20045;-88
2022/05/12 13:20:45;;;;;;;6.00;1.50;;;;;;;;;;5019205;28;20049;-87
2022/05/12 13:23:16;;;;;;;7.18;1.25;;;;;;;;;;5013686;28;20111;-84
2022/05/12 13:25:44;;;;;;;7.95;1.20;;;;;;;;;;5021386;28;20507;-85
2022/05/12 13:28:19;;;;;;;8.82;1.75;;;;;;;;;;5050223;28;20132;-86
2022/05/12 13:30:48;;;;;;;7.15;0.90;;;;;;;;;;5042841;28;20126;-84
2022/05/12 13:33:21;;;;;;;6.63;1.20;;;;;;;;;;5052378;28;20045;-87
2022/05/12 13:35:56;;;;;;;5.30;1.17;;;;;;;;;;5020056;28;20122;-84
2022/05/12 13:38:26;;;;;;;4.25;1.10;;;;;;;;;;5017163;28;20053;-84
2022/05/12 13:40:54;;;;;;;8.10;1.30;;;;;;;;;;5031752;28;20478;-84
2022/05/12 13:43:24;;;;;;;7.47;1.30;;;;;;;;;;5031888;28;20088;-83
2022/05/12 13:46:09;;;;;;;6.57;1.38;;;;;;;;;;5032771;28;20084;-88
2022/05/12 13:48:52;;;;;;;4.25;1.13;;;;;;;;;;5016119;28;20053;-83
2022/05/12 13:51:39;;;;;;;5.05;0.98;;;;;;;;;;5035544;28;20045;-83
2022/05/12 13:54:23;;;;;;;4.50;1.08;;;;;;;;;;5032144;28;20053;-86
2022/05/12 13:56:50;;;;;;;12.55;1.40;;;;;;;;;;5016478;28;20080;-85
2022/05/12 13:59:30;;;;;;;5.32;0.93;;;;;;;;;;5031932;28;20824;-88
2022/05/12 14:02:12;;;;;;;2.85;1.00;;;;;;;;;;5015070;28;20988;-87
2022/05/12 14:04:40;;;;;;;10.00;1.30;;;;;;;;;;5034037;28;20063;-86
2022/05/12 14:07:07;;;;;;;5.50;1.42;;;;;;;;;;5034277;28;20439;-87
2022/05/12 14:09:35;;;;;;;5.03;1.00;;;;;;;;;;5031241;28;20073;-87
2022/05/12 14:12:26;;;;;;;6.30;0.80;;;;;;;;;;5031758;28;20053;-86
2022/05/12 14:20:29;;;;;;;4.60;1.13;;;;;;;;;;5039492;28;20499;-87
2022/05/12 14:22:56;;;;;;;2.45;0.85;;;;;;;;;;5016236;28;20675;-84
2022/05/12 14:25:29;;;;;;;11.45;1.35;;;;;;;;;;5034053;28;20049;-85
2022/05/12 14:27:57;;;;;;;7.97;0.88;;;;;;;;;;5029529;28;20064;-85
2022/05/12 14:30:24;;;;;;;6.53;1.30;;;;;;;;;;5032038;28;20472;-88
2022/05/12 14:32:53;;;;;;;10.50;1.35;;;;;;;;;;5017781;28;21002;-85
2022/05/12 14:35:28;;;;;;;6.50;1.10;;;;;;;;;;5020393;28;20451;-85
2022/05/12 14:37:55;;;;;;;4.17;0.90;;;;;;;;;;5013682;28;20084;-82
2022/05/12 14:40:26;;;;;;;8.93;1.55;;;;;;;;;;5022108;28;20049;-82
2022/05/12 14:42:54;;;;;;;7.20;1.45;;;;;;;;;;5051292;28;20055;-83
2022/05/12 14:45:22;;;;;;;4.82;0.65;;;;;;;;;;5031789;28;20371;-81
2022/05/12 14:47:54;;;;;;;5.03;0.90;;;;;;;;;;5011265;28;20129;-82
2022/05/12 14:50:23;;;;;;;6.18;0.88;;;;;;;;;;5018194;28;20137;-81
2022/05/12 14:52:50;;;;;;;3.35;1.20;;;;;;;;;;5030506;28;20053;-79
2022/05/12 14:55:20;;;;;;;3.28;0.90;;;;;;;;;;5032793;28;20124;-78
2022/05/12 14:57:48;;;;;;;5.43;1.40;;;;;;;;;;5030284;28;20048;-78
2022/05/12 15:00:16;;;;;;;11.23;2.60;;;;;;;;;;5024557;28;20127;-78
2022/05/12 15:02:44;;;;;;;6.72;0.90;;;;;;;;;;5026574;28;20056;-79
2022/05/12 15:05:12;;;;;;;7.68;1.25;;;;;;;;;;5021446;28;20398;-79
2022/05/12 15:07:40;;;;;;;4.10;1.25;;;;;;;;;;5026315;28;20041;-79
2022/05/12 15:10:10;;;;;;;3.08;1.00;;;;;;;;;;5009616;28;20819;-80
2022/05/12 15:12:39;;;;;;;3.70;0.90;;;;;;;;;;5030353;28;20082;-82
2022/05/12 15:15:07;;;;;;;4.63;1.10;;;;;;;;;;5029453;28;20096;-79
2022/05/12 15:17:35;;;;;;;7.93;1.35;;;;;;;;;;4988231;28;20131;-80
2022/05/12 15:20:06;;;;;;;8.27;1.40;;;;;;;;;;5021655;28;20057;-81
2022/05/12 15:22:34;;;;;;;4.63;1.00;;;;;;;;;;5027080;28;20054;-83
2022/05/12 15:25:02;;;;;;;5.00;0.98;;;;;;;;;;5026896;28;20145;-81
2022/05/12 15:27:33;;;;;;;6.43;1.50;;;;;;;;;;5023838;28;21301;-80
2022/05/12 15:30:01;;;;;;;7.97;1.10;;;;;;;;;;5013316;28;20489;-80
2022/05/12 15:32:29;;;;;;;6.00;1.10;;;;;;;;;;5030859;28;21293;-79